KSMO/SMO METAR and TAF weather

Enter ICAO airport designator
Station Type Date Time Source
KSMO METAR 2024/05/28 22:51 UTC NOAA

KSMO 282251Z 21008KT 8SM SCT012 17/14 A3003 RMK AO2 SLP168 T01720139


Station Type Date Time Source
KSMO Decoded METAR 2024/05/28 22:51 UTC NOAA

SANTA MONICA MUNICIPAL AIRPORT , CA, United States (KSMO) 34-01N 118-27W 57M
May 28, 2024 - 06:51 PM EDT / 2024.05.28 2251 UTC
Wind: from the SSW (210 degrees) at 9 MPH (8 KT):0
Visibility: 8 mile(s):0
Sky conditions: partly cloudy
Temperature: 63.0 F (17.2 C)
Dew Point: 57.0 F (13.9 C)
Relative Humidity: 80%
Pressure (altimeter): 30.03 in. Hg (1016 hPa)
ob: KSMO 282251Z 21008KT 8SM SCT012 17/14 A3003 RMK AO2 SLP168 T01720139
cycle: 23

Station Type Date Time Source
KSMO TAF 2024/05/28 21:24 UTC NOAA